Terminal Aerodrome Forecast
Issued by NWS Memphis, TN

Home | Current Version | Previous Version | Text Only | Print | Product List | Glossary On
Versions: 1 2 3 4 5 6 7 8 9 10 11 12 13
000
FTUS44 KMEG 230520
TAFJBR
TAF
KJBR 230520Z 2306/2406 06004KT P6SM BKN100 BKN250
     FM231400 13008KT P6SM BKN080
     FM232100 13008KT P6SM FEW100
     FM240000 11005KT P6SM FEW050=

USA.gov is the U.S. government's official web portal to all federal, state and local government web resources and services.